Trenton, Michigan
Current Conditions -  °F | °C
As of 3:34 AM on Friday 28 Nov 2014 (Local Time) from KONZ Reporting Station
Broken Clouds Broken Clouds  
Wind Chill: 13°   Ceiling: 3800
Heat Index: 21°   Visibility: 10mi
Dew Point: 10°   Wind: 7mph
Humidity: 63%   Direction: 280°W
Pressure: 30.33"   Gusts: NA
Location:  42.14°N, 83.18°W
Report Text: KONZ 280834Z AUTO 28006KT 10SM BKN038 M06/M12 A3033 RMK AO2
Loading
Personal Weather Stations






























Interactive Weather Map New forecast layout! Learn more

10-Day Weather Forecast

Advertisements
Track Severe Weather on mobile